TAF GCXO
GCXO 270800Z 2709/2809 32014KT 9999 BKN020 TX15/2714Z TN14/2806Z PROB40 TEMPO 2709/2809 3000 DZRA BCFG BKN006=
METAR GCXO
GCXO 270830Z 33013KT 290V350 9999 FEW012 SCT017 13/10 Q1021 NOSIG=
GCXO 270800Z 32013KT 290V350 9999 FEW012 SCT017 13/11 Q1021 NOSIG=
GCXO 270730Z 33012KT 300V360 9999 FEW010 SCT017 13/10 Q1021 NOSIG=
GCXO 270700Z 33014KT 300V360 9999 FEW010 SCT017 13/10 Q1020 NOSIG=
GCXO 270630Z 31011KT 9999 FEW010 SCT015 13/11 Q1020 NOSIG=
WC GCXO
WS GCXO
WV GCXO